createdAt,value
2022-07-29T00:02:26.887Z,2.63
2022-07-29T00:04:54.050Z,3.60
2022-07-29T00:07:21.138Z,2.03
2022-07-29T00:09:51.902Z,2.85
2022-07-29T00:12:25.403Z,4.90
2022-07-29T00:14:55.577Z,3.28
2022-07-29T00:17:22.989Z,3.15
2022-07-29T00:19:49.580Z,2.10
2022-07-29T00:22:16.285Z,1.85
2022-07-29T00:24:43.055Z,1.83
2022-07-29T00:27:09.588Z,2.85
2022-07-29T00:29:36.206Z,3.80
2022-07-29T00:32:03.500Z,4.13
2022-07-29T00:34:59.081Z,1.60
2022-07-29T00:37:25.852Z,3.90
2022-07-29T00:39:52.513Z,3.50
2022-07-29T00:42:19.053Z,4.43
2022-07-29T00:44:45.665Z,3.75
2022-07-29T00:47:12.642Z,3.80
2022-07-29T00:49:41.313Z,3.83
2022-07-29T00:52:09.164Z,2.83
2022-07-29T00:54:43.900Z,2.80
2022-07-29T00:57:12.027Z,2.58
2022-07-29T00:59:38.570Z,4.80
2022-07-29T01:02:05.199Z,2.30
2022-07-29T01:04:32.873Z,2.80
2022-07-29T01:07:01.532Z,2.83
2022-07-29T01:09:35.926Z,4.18
2022-07-29T01:12:19.294Z,1.85
2022-07-29T01:14:47.530Z,3.72
2022-07-29T01:17:29.598Z,2.15
2022-07-29T01:20:12.237Z,2.22
2022-07-29T01:23:09.448Z,2.40
2022-07-29T01:25:44.714Z,1.60
2022-07-29T01:28:49.151Z,2.95
2022-07-29T01:31:25.151Z,2.33
2022-07-29T01:34:00.237Z,1.27
2022-07-29T01:36:33.498Z,2.08
2022-07-29T01:39:46.619Z,2.10
2022-07-29T01:42:22.379Z,2.55
2022-07-29T01:44:59.432Z,2.00
2022-07-29T01:47:32.981Z,1.77
2022-07-29T01:50:05.048Z,1.58
2022-07-29T01:52:59.442Z,2.60
2022-07-29T01:55:29.777Z,1.63
2022-07-29T01:57:58.762Z,0.80
2022-07-29T02:00:26.677Z,2.78
2022-07-29T02:02:54.880Z,2.63
2022-07-29T02:05:23.220Z,2.05
2022-07-29T02:07:51.886Z,1.20
2022-07-29T02:10:26.113Z,2.50
2022-07-29T02:12:54.890Z,3.65
2022-07-29T02:15:27.513Z,2.08
2022-07-29T02:18:09.437Z,2.78
2022-07-29T02:20:38.470Z,2.75
2022-07-29T02:23:05.668Z,1.70
2022-07-29T02:25:36.973Z,1.60
2022-07-29T02:28:06.215Z,2.17
2022-07-29T02:30:33.930Z,2.60
2022-07-29T02:33:00.991Z,2.78
2022-07-29T02:35:28.220Z,2.67
2022-07-29T02:38:20.859Z,1.98
2022-07-29T02:40:47.926Z,1.52
2022-07-29T02:43:15.173Z,1.77
2022-07-29T02:45:42.508Z,2.38
2022-07-29T02:48:14.135Z,1.30
2022-07-29T02:50:49.731Z,1.48
2022-07-29T02:53:19.812Z,4.50
2022-07-29T02:55:55.546Z,1.13
2022-07-29T02:58:40.734Z,2.88
2022-07-29T03:01:20.907Z,2.80
2022-07-29T03:03:50.168Z,2.42
2022-07-29T03:06:31.375Z,2.15
2022-07-29T03:09:12.323Z,1.80
2022-07-29T03:11:49.294Z,2.10
2022-07-29T03:14:20.308Z,1.10
2022-07-29T03:16:47.928Z,1.75
2022-07-29T03:19:15.262Z,1.48
2022-07-29T03:21:41.856Z,1.70
2022-07-29T03:24:12.763Z,2.17
2022-07-29T03:26:39.393Z,1.70
2022-07-29T03:29:05.942Z,3.47
2022-07-29T03:31:34.978Z,2.50
2022-07-29T03:34:01.533Z,1.60
2022-07-29T03:36:28.096Z,1.90
2022-07-29T03:38:55.644Z,2.45
2022-07-29T03:41:23.787Z,1.67
2022-07-29T03:43:51.903Z,0.90
2022-07-29T03:46:21.604Z,1.60
2022-07-29T03:48:53.644Z,1.33
2022-07-29T03:51:20.323Z,1.45
2022-07-29T03:54:00.303Z,3.08
2022-07-29T03:56:29.025Z,1.55
2022-07-29T03:58:56.549Z,1.40
2022-07-29T04:01:23.764Z,1.58
2022-07-29T04:03:50.687Z,2.38
2022-07-29T04:06:17.262Z,1.38
2022-07-29T04:08:43.826Z,1.80
2022-07-29T04:11:10.472Z,2.55
2022-07-29T04:13:37.010Z,2.88
2022-07-29T04:16:03.700Z,1.52
2022-07-29T04:18:30.278Z,1.50
2022-07-29T04:20:57.013Z,1.40
2022-07-29T04:23:23.647Z,1.70
2022-07-29T04:25:50.329Z,2.80
2022-07-29T04:28:17.067Z,1.55
2022-07-29T04:30:43.771Z,2.00
2022-07-29T04:33:10.373Z,1.40
2022-07-29T04:35:43.612Z,2.15
2022-07-29T04:38:17.283Z,2.03
2022-07-29T04:40:44.022Z,2.67
2022-07-29T04:43:10.558Z,3.63
2022-07-29T04:45:39.102Z,1.20
2022-07-29T04:48:05.834Z,2.05
2022-07-29T04:50:32.834Z,1.25
2022-07-29T04:52:59.539Z,2.85
2022-07-29T04:55:26.429Z,0.93
2022-07-29T04:57:52.942Z,1.70
2022-07-29T05:00:19.473Z,2.00
2022-07-29T05:02:46.075Z,2.33
2022-07-29T05:05:12.674Z,1.35
2022-07-29T05:07:41.823Z,2.50
2022-07-29T05:10:09.318Z,3.03
2022-07-29T05:12:35.967Z,6.85
2022-07-29T05:15:02.524Z,27.40
2022-07-29T05:17:29.095Z,17.45
2022-07-29T05:19:55.696Z,25.02
2022-07-29T05:22:22.682Z,11.75
2022-07-29T05:24:49.264Z,15.85
2022-07-29T05:27:15.971Z,13.48
2022-07-29T05:29:45.621Z,14.93
2022-07-29T05:32:13.641Z,13.05
2022-07-29T05:34:50.264Z,13.55
2022-07-29T05:37:21.513Z,12.25
2022-07-29T05:39:50.398Z,13.32
2022-07-29T05:42:23.085Z,13.50
2022-07-29T05:44:49.624Z,14.07
2022-07-29T05:47:16.985Z,11.77
2022-07-29T05:49:43.547Z,9.80
2022-07-29T05:52:10.434Z,11.13
2022-07-29T05:54:37.103Z,11.02
2022-07-29T05:57:04.214Z,15.63
2022-07-29T05:59:30.821Z,11.05
2022-07-29T06:01:58.514Z,13.00
2022-07-29T06:04:25.293Z,13.55
2022-07-29T06:06:51.896Z,14.07
2022-07-29T06:09:18.415Z,6.90
2022-07-29T06:11:44.938Z,8.40
2022-07-29T06:14:11.522Z,14.65
2022-07-29T06:16:38.141Z,16.35
2022-07-29T06:19:05.422Z,10.05
2022-07-29T06:21:32.035Z,11.07
2022-07-29T06:23:58.592Z,15.48
2022-07-29T06:26:28.470Z,11.57
2022-07-29T06:28:58.154Z,11.68
2022-07-29T06:31:24.876Z,10.38
2022-07-29T06:33:51.577Z,8.32
2022-07-29T06:36:21.317Z,9.88
2022-07-29T06:38:51.424Z,9.90
2022-07-29T06:41:19.158Z,9.18
2022-07-29T06:43:51.902Z,14.55
2022-07-29T06:46:22.019Z,8.45
2022-07-29T06:48:49.469Z,10.20
2022-07-29T06:51:22.739Z,10.10
2022-07-29T06:53:59.345Z,11.20
2022-07-29T06:56:31.658Z,9.75
2022-07-29T06:58:58.405Z,9.85
2022-07-29T07:01:24.982Z,7.85
2022-07-29T07:03:51.579Z,7.18
2022-07-29T07:06:18.241Z,7.93
2022-07-29T07:08:44.813Z,7.00
2022-07-29T07:11:11.395Z,5.75
2022-07-29T07:13:38.088Z,10.75
2022-07-29T07:16:05.251Z,8.65
2022-07-29T07:18:32.045Z,5.75
2022-07-29T07:20:58.923Z,7.97
2022-07-29T07:23:26.419Z,8.43
2022-07-29T07:25:53.271Z,10.02
2022-07-29T07:28:25.091Z,9.07
2022-07-29T07:30:52.615Z,8.27
2022-07-29T07:33:19.468Z,6.15
2022-07-29T07:35:46.247Z,9.63
2022-07-29T07:38:12.907Z,8.93
2022-07-29T07:40:39.597Z,8.18
2022-07-29T07:43:06.144Z,8.27
2022-07-29T07:45:38.119Z,4.82
2022-07-29T07:48:05.474Z,6.47
2022-07-29T07:50:32.058Z,8.02
2022-07-29T07:52:58.937Z,8.63
2022-07-29T07:55:26.630Z,5.15
2022-07-29T07:57:53.670Z,4.93
2022-07-29T08:00:23.017Z,4.85
2022-07-29T08:02:51.008Z,5.53
2022-07-29T08:05:18.389Z,4.20
2022-07-29T08:07:48.746Z,4.45
2022-07-29T08:10:36.566Z,3.78
2022-07-29T08:13:07.728Z,4.63
2022-07-29T08:15:34.532Z,7.15
2022-07-29T08:18:05.235Z,5.63
2022-07-29T08:20:36.494Z,3.47
2022-07-29T08:23:03.985Z,4.47
2022-07-29T08:25:30.745Z,6.22
2022-07-29T08:27:57.509Z,4.45
2022-07-29T08:30:24.216Z,5.82
2022-07-29T08:32:55.057Z,6.82
2022-07-29T08:35:23.660Z,3.13
2022-07-29T08:37:50.285Z,4.47
2022-07-29T08:40:17.189Z,4.57
2022-07-29T08:42:43.722Z,3.78
2022-07-29T08:45:12.079Z,5.43
2022-07-29T08:47:40.838Z,6.63
2022-07-29T08:50:09.570Z,5.93
2022-07-29T08:52:41.242Z,7.10
2022-07-29T08:55:09.738Z,7.00
2022-07-29T08:57:37.134Z,3.70
2022-07-29T09:00:11.575Z,4.40
2022-07-29T09:02:46.778Z,6.95
2022-07-29T09:05:14.214Z,5.93
2022-07-29T09:07:43.201Z,5.35
2022-07-29T09:10:10.176Z,4.20
2022-07-29T09:12:38.194Z,8.23
2022-07-29T09:15:05.201Z,7.15
2022-07-29T09:17:46.210Z,4.05
2022-07-29T09:20:18.496Z,8.65
2022-07-29T09:22:50.138Z,4.53
2022-07-29T09:25:40.066Z,3.40
2022-07-29T09:28:14.710Z,4.63
2022-07-29T09:30:55.367Z,3.80
2022-07-29T09:33:23.145Z,3.53
2022-07-29T09:36:06.096Z,5.57
2022-07-29T09:38:33.839Z,3.92
2022-07-29T09:41:05.806Z,7.38
2022-07-29T09:43:33.548Z,2.97
2022-07-29T09:46:12.521Z,3.58
2022-07-29T09:48:39.341Z,5.45
2022-07-29T09:51:07.426Z,5.13
2022-07-29T09:53:36.807Z,4.10
2022-07-29T09:56:04.949Z,4.35
2022-07-29T09:58:34.620Z,4.75
2022-07-29T10:01:01.470Z,4.18
2022-07-29T10:03:28.262Z,4.82
2022-07-29T10:06:12.132Z,8.00
2022-07-29T10:08:39.214Z,3.67
2022-07-29T10:11:22.035Z,3.40
2022-07-29T10:13:49.667Z,3.78
2022-07-29T10:16:17.735Z,3.58
2022-07-29T10:18:45.247Z,6.15
2022-07-29T10:21:22.585Z,5.63
2022-07-29T10:24:01.227Z,5.57
2022-07-29T10:26:29.241Z,5.75
2022-07-29T10:28:56.627Z,4.28
2022-07-29T10:31:30.776Z,4.00
2022-07-29T10:34:06.025Z,3.55
2022-07-29T10:37:08.331Z,4.32
2022-07-29T10:39:56.507Z,4.40
2022-07-29T10:42:29.791Z,6.05
2022-07-29T10:45:01.723Z,3.95
2022-07-29T10:47:28.818Z,4.15
2022-07-29T10:50:05.615Z,4.60
2022-07-29T10:52:50.276Z,2.92
2022-07-29T10:55:35.746Z,3.90
2022-07-29T10:58:19.019Z,9.25
2022-07-29T11:00:48.022Z,5.72
2022-07-29T11:03:49.468Z,8.95
2022-07-29T11:06:26.615Z,4.55
2022-07-29T11:09:20.482Z,4.28
2022-07-29T11:12:04.582Z,5.63
2022-07-29T11:15:01.534Z,9.88
2022-07-29T11:20:43.782Z,5.05
2022-07-29T11:23:34.039Z,3.72
2022-07-29T11:26:10.368Z,6.82
2022-07-29T11:28:51.110Z,4.82
2022-07-29T11:31:40.417Z,6.18
2022-07-29T11:34:27.806Z,4.90
2022-07-29T11:37:08.371Z,7.05
2022-07-29T11:39:37.642Z,5.22
2022-07-29T11:42:28.528Z,7.63
2022-07-29T11:45:04.372Z,4.07
2022-07-29T11:47:48.543Z,6.05
2022-07-29T11:50:31.180Z,5.90
2022-07-29T11:53:00.518Z,5.80
2022-07-29T11:55:32.597Z,7.03
2022-07-29T11:58:04.041Z,9.02
2022-07-29T12:00:39.266Z,3.97
2022-07-29T12:03:08.327Z,7.50
2022-07-29T12:05:47.962Z,6.55
2022-07-29T12:08:26.849Z,8.38
2022-07-29T12:10:53.420Z,6.28
2022-07-29T12:13:22.144Z,5.65
2022-07-29T12:16:00.013Z,5.00
2022-07-29T12:18:27.912Z,7.85
2022-07-29T12:20:59.116Z,5.05
2022-07-29T12:23:35.076Z,5.75
2022-07-29T12:26:04.999Z,4.18
2022-07-29T12:28:39.300Z,4.93
2022-07-29T12:31:06.009Z,6.03
2022-07-29T12:33:35.913Z,3.63
2022-07-29T12:36:07.680Z,4.90
2022-07-29T12:38:38.041Z,4.13
2022-07-29T12:41:05.190Z,4.05
2022-07-29T12:43:32.565Z,3.40
2022-07-29T12:46:12.102Z,6.00
2022-07-29T12:48:41.439Z,4.00
2022-07-29T12:51:10.037Z,5.68
2022-07-29T12:53:40.118Z,4.68
2022-07-29T12:56:20.760Z,3.88
2022-07-29T12:58:53.613Z,5.47
2022-07-29T13:01:22.615Z,3.85
2022-07-29T13:04:03.878Z,5.03
2022-07-29T13:06:33.852Z,5.38
2022-07-29T13:09:08.261Z,4.63
2022-07-29T13:11:44.034Z,4.38
2022-07-29T13:14:18.112Z,2.88
2022-07-29T13:17:15.026Z,4.63
2022-07-29T13:19:43.010Z,6.18
2022-07-29T13:22:11.807Z,3.65
2022-07-29T13:24:47.409Z,6.72
2022-07-29T13:27:19.114Z,4.28
2022-07-29T13:29:46.270Z,3.05
2022-07-29T13:32:13.976Z,5.60
2022-07-29T13:34:41.684Z,4.13
2022-07-29T13:37:08.244Z,7.22
2022-07-29T13:39:34.786Z,3.50
2022-07-29T13:42:02.151Z,3.95
2022-07-29T13:44:28.762Z,5.97
2022-07-29T13:46:55.429Z,3.72
2022-07-29T13:49:22.253Z,4.25
2022-07-29T13:51:50.402Z,4.95
2022-07-29T13:54:16.964Z,5.68
2022-07-29T13:56:43.514Z,4.45
2022-07-29T13:59:10.089Z,5.47
2022-07-29T14:01:39.936Z,2.60
2022-07-29T14:04:06.513Z,3.25
2022-07-29T14:06:33.069Z,2.33
2022-07-29T14:08:59.691Z,5.00
2022-07-29T14:11:26.322Z,5.30
2022-07-29T14:13:53.121Z,3.80
2022-07-29T14:16:19.691Z,4.63
2022-07-29T14:18:46.261Z,4.95
2022-07-29T14:21:13.428Z,2.50
2022-07-29T14:23:42.332Z,4.00
2022-07-29T14:26:12.422Z,6.22
2022-07-29T14:28:42.667Z,3.40
2022-07-29T14:31:09.235Z,4.47
2022-07-29T14:33:35.884Z,3.47
2022-07-29T14:36:02.518Z,4.60
2022-07-29T14:38:29.546Z,4.20
2022-07-29T14:40:56.126Z,3.72
2022-07-29T14:43:22.652Z,3.17
2022-07-29T14:45:49.261Z,2.85
2022-07-29T14:48:15.844Z,2.30
2022-07-29T14:50:42.410Z,2.97
2022-07-29T14:53:09.209Z,3.50
2022-07-29T14:55:36.414Z,3.83
2022-07-29T14:58:09.870Z,2.60
2022-07-29T15:00:38.663Z,2.60
2022-07-29T15:03:05.299Z,3.65
2022-07-29T15:05:32.352Z,3.30
2022-07-29T15:07:59.910Z,2.60
2022-07-29T15:10:30.129Z,3.22
2022-07-29T15:12:57.283Z,2.28
2022-07-29T15:15:23.982Z,2.65
2022-07-29T15:17:50.534Z,3.78
2022-07-29T15:20:17.098Z,2.72
2022-07-29T15:22:44.258Z,2.53
2022-07-29T15:25:10.915Z,8.45
2022-07-29T15:27:37.498Z,4.97
2022-07-29T15:30:04.425Z,9.60
2022-07-29T15:32:31.265Z,5.63
2022-07-29T15:34:57.816Z,4.88
2022-07-29T15:37:24.434Z,4.60
2022-07-29T15:39:51.296Z,7.82
2022-07-29T15:42:17.941Z,4.70
2022-07-29T15:44:44.519Z,5.45
2022-07-29T15:47:11.044Z,5.45
2022-07-29T15:49:47.915Z,7.72
2022-07-29T15:52:24.972Z,6.25
2022-07-29T15:54:52.201Z,6.97
2022-07-29T15:57:18.745Z,6.80
2022-07-29T15:59:45.337Z,3.85
2022-07-29T16:02:11.864Z,6.25
2022-07-29T16:04:38.857Z,6.15
2022-07-29T16:07:05.646Z,9.35
2022-07-29T16:09:32.211Z,4.43
2022-07-29T16:11:58.925Z,5.18
2022-07-29T16:14:28.386Z,8.75
2022-07-29T16:16:56.960Z,8.45
2022-07-29T16:19:23.833Z,5.43
2022-07-29T16:21:50.420Z,4.43
2022-07-29T16:24:16.957Z,7.18
2022-07-29T16:26:43.509Z,4.75
2022-07-29T16:29:10.080Z,8.98
2022-07-29T16:31:36.717Z,5.00
2022-07-29T16:34:03.354Z,7.50
2022-07-29T16:36:29.970Z,6.00
2022-07-29T16:38:56.530Z,6.63
2022-07-29T16:41:23.344Z,5.10
2022-07-29T16:43:49.993Z,5.60
2022-07-29T16:46:18.879Z,9.23
2022-07-29T16:48:46.103Z,4.82
2022-07-29T16:51:14.557Z,8.25
2022-07-29T16:53:41.547Z,5.28
2022-07-29T16:56:08.499Z,5.40
2022-07-29T16:58:43.562Z,5.97
2022-07-29T17:01:11.350Z,7.57
2022-07-29T17:04:00.158Z,4.90
2022-07-29T17:06:28.645Z,7.30
2022-07-29T17:08:56.402Z,6.28
2022-07-29T17:11:22.978Z,10.18
2022-07-29T17:14:10.388Z,8.23
2022-07-29T17:16:37.025Z,11.80
2022-07-29T17:19:03.981Z,8.98
2022-07-29T17:21:30.538Z,12.20
2022-07-29T17:23:59.253Z,5.93
2022-07-29T17:26:27.508Z,8.32
2022-07-29T17:28:55.299Z,9.98
2022-07-29T17:31:22.025Z,7.82
2022-07-29T17:33:48.668Z,10.27
2022-07-29T17:36:23.985Z,5.68
2022-07-29T17:38:52.991Z,7.65
2022-07-29T17:41:20.348Z,9.73
2022-07-29T17:43:47.102Z,5.53
2022-07-29T17:46:13.801Z,9.68
2022-07-29T17:48:41.345Z,11.40
2022-07-29T17:51:08.436Z,5.97
2022-07-29T17:53:35.006Z,7.20
2022-07-29T17:56:01.816Z,9.60
2022-07-29T17:58:28.415Z,9.45
2022-07-29T18:00:54.978Z,8.05
2022-07-29T18:03:21.720Z,10.35
2022-07-29T18:05:49.438Z,5.43
2022-07-29T18:08:17.092Z,8.15
2022-07-29T18:10:44.965Z,7.72
2022-07-29T18:13:16.418Z,5.97
2022-07-29T18:15:45.120Z,6.38
2022-07-29T18:18:15.902Z,8.50
2022-07-29T18:20:43.479Z,6.57
2022-07-29T18:23:10.343Z,4.97
2022-07-29T18:25:37.223Z,5.78
2022-07-29T18:28:03.975Z,9.10
2022-07-29T18:30:31.075Z,4.53
2022-07-29T18:33:19.863Z,8.75
2022-07-29T18:35:44.555Z,7.25
2022-07-29T18:38:11.397Z,4.97
2022-07-29T18:40:40.064Z,6.82
2022-07-29T18:43:07.257Z,5.47
2022-07-29T18:45:33.929Z,5.32
2022-07-29T18:48:02.049Z,5.80
2022-07-29T18:50:29.944Z,3.95
2022-07-29T18:52:58.914Z,5.65
2022-07-29T18:55:25.941Z,4.65
2022-07-29T18:57:55.049Z,6.28
2022-07-29T19:00:23.906Z,4.53
2022-07-29T19:02:50.691Z,5.35
2022-07-29T19:05:17.371Z,5.20
2022-07-29T19:07:43.896Z,4.63
2022-07-29T19:10:11.233Z,4.50
2022-07-29T19:12:37.918Z,5.32
2022-07-29T19:15:04.837Z,6.65
2022-07-29T19:17:31.394Z,5.00
2022-07-29T19:19:58.146Z,5.07
2022-07-29T19:22:24.848Z,5.93
2022-07-29T19:24:51.566Z,4.82
2022-07-29T19:27:18.119Z,3.53
2022-07-29T19:29:44.629Z,5.72
2022-07-29T19:32:11.253Z,5.97
2022-07-29T19:34:38.352Z,3.67
2022-07-29T19:37:06.028Z,4.82
2022-07-29T19:39:35.238Z,4.93
2022-07-29T19:42:03.435Z,3.47
2022-07-29T19:44:31.017Z,4.50
2022-07-29T19:47:00.524Z,4.57
2022-07-29T19:49:27.568Z,4.38
2022-07-29T19:51:54.170Z,4.60
2022-07-29T19:54:20.803Z,4.78
2022-07-29T19:56:47.378Z,4.65
2022-07-29T19:59:14.590Z,5.88
2022-07-29T20:01:41.373Z,6.88
2022-07-29T20:04:08.090Z,5.15
2022-07-29T20:06:34.879Z,3.55
2022-07-29T20:09:01.445Z,6.82
2022-07-29T20:11:29.728Z,5.20
2022-07-29T20:13:56.401Z,4.75
2022-07-29T20:16:23.066Z,6.78
2022-07-29T20:18:51.989Z,4.32
2022-07-29T20:21:18.546Z,5.55
2022-07-29T20:23:45.938Z,4.60
2022-07-29T20:26:12.760Z,6.05
2022-07-29T20:28:40.300Z,5.65
2022-07-29T20:31:07.091Z,5.90
2022-07-29T20:33:33.808Z,5.18
2022-07-29T20:36:00.410Z,7.93
2022-07-29T20:38:28.457Z,7.40
2022-07-29T20:40:58.542Z,5.00
2022-07-29T20:43:27.057Z,4.57
2022-07-29T20:45:53.632Z,3.10
2022-07-29T20:48:20.220Z,4.78
2022-07-29T20:50:48.751Z,3.30
2022-07-29T20:53:16.692Z,4.25
2022-07-29T20:55:43.457Z,3.53
2022-07-29T20:58:10.280Z,5.20
2022-07-29T21:00:37.323Z,4.57
2022-07-29T21:03:04.207Z,3.67
2022-07-29T21:05:31.431Z,3.72
2022-07-29T21:07:58.371Z,6.50
2022-07-29T21:10:25.750Z,3.22
2022-07-29T21:12:52.347Z,7.90
2022-07-29T21:15:20.818Z,6.80
2022-07-29T21:17:48.189Z,6.18
2022-07-29T21:20:16.520Z,3.00
2022-07-29T21:22:43.361Z,4.90
2022-07-29T21:25:10.932Z,4.15
2022-07-29T21:27:56.220Z,6.82
2022-07-29T21:30:23.124Z,3.15
2022-07-29T21:32:49.733Z,4.30
2022-07-29T21:35:35.928Z,4.03
2022-07-29T21:38:03.303Z,3.33
2022-07-29T21:40:30.457Z,2.83
2022-07-29T21:42:57.061Z,4.57
2022-07-29T21:45:23.737Z,7.90
2022-07-29T21:47:50.240Z,5.75
2022-07-29T21:50:16.837Z,5.80
2022-07-29T21:52:43.433Z,3.30
2022-07-29T21:55:10.677Z,3.75
2022-07-29T21:57:38.231Z,3.97
2022-07-29T22:00:06.289Z,5.50
2022-07-29T22:02:32.821Z,5.18
2022-07-29T22:04:59.370Z,4.63
2022-07-29T22:07:25.924Z,3.80
2022-07-29T22:10:12.564Z,4.07
2022-07-29T22:12:39.076Z,2.88
2022-07-29T22:15:06.040Z,3.33
2022-07-29T22:17:32.801Z,2.90
2022-07-29T22:19:59.429Z,6.38
2022-07-29T22:22:26.105Z,4.22
2022-07-29T22:24:52.836Z,3.13
2022-07-29T22:27:19.389Z,5.15
2022-07-29T22:29:45.942Z,5.60
2022-07-29T22:32:12.557Z,3.40
2022-07-29T22:34:39.123Z,3.97
2022-07-29T22:37:05.921Z,5.32
2022-07-29T22:39:32.458Z,5.07
2022-07-29T22:41:58.986Z,3.90
2022-07-29T22:44:25.534Z,2.60
2022-07-29T22:46:52.091Z,4.00
2022-07-29T22:49:18.780Z,3.17
2022-07-29T22:51:45.331Z,2.33
2022-07-29T22:54:11.890Z,5.13
2022-07-29T22:56:38.430Z,8.82
2022-07-29T22:59:04.976Z,3.38
2022-07-29T23:01:37.206Z,4.07
2022-07-29T23:04:04.818Z,5.00
2022-07-29T23:06:31.424Z,4.18
2022-07-29T23:08:57.952Z,3.58
2022-07-29T23:11:24.581Z,5.78
2022-07-29T23:13:51.146Z,2.85
2022-07-29T23:16:26.379Z,3.67
2022-07-29T23:18:53.955Z,3.85
2022-07-29T23:21:20.973Z,3.45
2022-07-29T23:23:48.757Z,3.08
2022-07-29T23:26:16.911Z,6.40
2022-07-29T23:28:44.782Z,4.00
2022-07-29T23:31:11.705Z,3.42
2022-07-29T23:33:38.262Z,3.20
2022-07-29T23:36:04.825Z,4.68
2022-07-29T23:38:31.424Z,3.95
2022-07-29T23:40:58.737Z,3.50
2022-07-29T23:43:25.309Z,5.22
2022-07-29T23:45:51.890Z,4.35
2022-07-29T23:48:20.840Z,4.18
2022-07-29T23:50:47.528Z,3.63
2022-07-29T23:53:14.132Z,3.17
2022-07-29T23:55:40.676Z,4.10
2022-07-29T23:58:07.194Z,5.40
